Time;durP1;ratioP1;P1;durP2;ratioP2;P2;SDS_P1;SDS_P2;PMS_P1;PMS_P2;Temp;Humidity;BMP_temperature;BMP_pressure;BME280_temperature;BME280_humidity;BME280_pressure;Samples;Min_cycle;Max_cycle;Signal;HPM_P1;HPM_P2
2023/04/21 00:01:59;;;;;;;36.47;19.50;;;9.40;99.90;;;;;;5011256;28;20029;-91
2023/04/21 00:04:25;;;;;;;40.40;20.48;;;9.40;99.90;;;;;;5020647;28;20025;-90
2023/04/21 00:06:51;;;;;;;37.13;19.63;;;9.30;99.90;;;;;;5011005;28;20645;-91
2023/04/21 00:09:17;;;;;;;40.20;20.50;;;9.00;99.90;;;;;;5006328;28;20034;-90
2023/04/21 00:11:43;;;;;;;39.00;20.10;;;8.80;99.90;;;;;;5009247;28;20107;-89
2023/04/21 00:14:09;;;;;;;44.35;20.88;;;8.90;99.90;;;;;;5002986;28;20050;-89
2023/04/21 00:16:35;;;;;;;45.25;21.08;;;9.00;99.90;;;;;;5010194;28;20473;-90
2023/04/21 00:19:01;;;;;;;42.70;20.75;;;9.10;99.90;;;;;;5009817;28;20093;-91
2023/04/21 00:21:27;;;;;;;47.40;22.65;;;9.10;99.90;;;;;;4999152;28;20030;-88
2023/04/21 00:23:53;;;;;;;46.60;21.95;;;9.20;99.90;;;;;;5008893;28;20036;-89
2023/04/21 00:26:19;;;;;;;40.85;21.65;;;9.20;99.90;;;;;;5007284;28;20045;-89
2023/04/21 00:28:45;;;;;;;48.50;21.35;;;9.30;99.90;;;;;;5008264;28;20122;-88
2023/04/21 00:31:11;;;;;;;41.08;22.48;;;9.30;99.90;;;;;;5008007;28;20112;-87
2023/04/21 00:33:37;;;;;;;48.22;23.75;;;9.30;99.90;;;;;;5010077;28;20021;-88
2023/04/21 00:36:03;;;;;;;44.55;21.92;;;9.30;99.90;;;;;;5002506;28;20378;-89
2023/04/21 00:38:28;;;;;;;43.78;22.70;;;9.20;99.90;;;;;;5003890;28;20018;-89
2023/04/21 00:40:54;;;;;;;41.00;22.48;;;9.30;99.90;;;;;;5003258;28;20026;-89
2023/04/21 00:43:20;;;;;;;45.90;21.88;;;9.20;99.90;;;;;;5000179;28;20030;-87
2023/04/21 00:45:48;;;;;;;39.55;21.88;;;9.20;99.90;;;;;;5014722;28;20028;-89
2023/04/21 00:48:14;;;;;;;49.25;23.30;;;9.30;99.90;;;;;;5001218;28;20121;-88
2023/04/21 00:50:40;;;;;;;48.85;23.30;;;9.30;99.90;;;;;;5003451;28;20107;-89
2023/04/21 00:53:08;;;;;;;43.85;22.52;;;9.30;99.90;;;;;;5007980;28;20025;-89
2023/04/21 00:55:35;;;;;;;42.70;22.27;;;9.30;99.90;;;;;;4996568;28;20077;-88
2023/04/21 00:58:04;;;;;;;46.13;22.45;;;9.30;99.90;;;;;;5001500;28;20301;-89
2023/04/21 01:00:30;;;;;;;49.92;23.02;;;9.30;99.90;;;;;;5020739;28;20022;-90
2023/04/21 01:02:56;;;;;;;42.65;21.67;;;9.30;99.90;;;;;;5007093;28;20053;-88
2023/04/21 01:05:22;;;;;;;45.20;22.10;;;9.30;99.90;;;;;;5021370;28;20030;-88
2023/04/21 01:07:49;;;;;;;47.30;23.17;;;9.30;99.90;;;;;;5020486;28;20556;-89
2023/04/21 01:10:18;;;;;;;45.90;23.48;;;9.20;99.90;;;;;;5014312;28;20114;-88
2023/04/21 01:12:45;;;;;;;45.78;23.45;;;9.20;99.90;;;;;;5015775;28;20034;-87
2023/04/21 01:15:12;;;;;;;45.40;22.20;;;9.30;99.90;;;;;;5016896;28;20140;-88
2023/04/21 01:17:39;;;;;;;52.28;24.38;;;9.30;99.90;;;;;;5008743;28;20390;-89
2023/04/21 01:20:09;;;;;;;47.10;22.42;;;9.20;99.90;;;;;;5001399;28;20045;-89
2023/04/21 01:22:44;;;;;;;44.95;22.67;;;9.20;99.90;;;;;;5022764;28;20029;-89
2023/04/21 01:25:10;;;;;;;48.28;24.45;;;9.30;99.90;;;;;;5002508;28;20029;-89
2023/04/21 01:27:35;;;;;;;46.15;23.27;;;9.30;99.90;;;;;;5007198;28;20022;-88
2023/04/21 01:30:10;;;;;;;46.75;22.73;;;9.30;99.90;;;;;;5005124;28;20415;-89
2023/04/21 01:32:38;;;;;;;50.83;23.80;;;9.30;99.90;;;;;;5009134;28;20029;-89
2023/04/21 01:35:05;;;;;;;51.40;24.83;;;9.20;99.90;;;;;;5010576;28;20025;-89
2023/04/21 01:37:32;;;;;;;47.75;24.15;;;9.30;99.90;;;;;;5001079;28;20026;-88
2023/04/21 01:40:00;;;;;;;48.47;23.65;;;9.20;99.90;;;;;;5008174;28;20385;-90
2023/04/21 01:42:29;;;;;;;48.08;23.92;;;9.20;99.90;;;;;;4999875;28;20109;-88
2023/04/21 01:44:55;;;;;;;45.65;24.00;;;9.20;99.90;;;;;;5007509;28;20075;-90
2023/04/21 01:47:24;;;;;;;52.58;25.35;;;9.20;99.90;;;;;;5007610;28;20030;-88
2023/04/21 01:49:52;;;;;;;45.90;23.88;;;9.20;99.90;;;;;;5008387;28;20025;-89
2023/04/21 01:52:18;;;;;;;49.60;25.05;;;9.20;99.90;;;;;;5006413;28;20064;-89
2023/04/21 01:54:44;;;;;;;52.45;25.50;;;9.20;99.90;;;;;;5007592;28;20386;-88
2023/04/21 01:57:09;;;;;;;52.85;26.58;;;9.30;99.90;;;;;;5006672;28;20030;-89
2023/04/21 01:59:36;;;;;;;51.60;24.88;;;9.30;99.90;;;;;;5012066;28;20030;-89
2023/04/21 02:02:02;;;;;;;49.75;25.83;;;9.30;99.90;;;;;;5009744;28;20362;-89
2023/04/21 02:04:30;;;;;;;55.20;25.55;;;9.30;99.90;;;;;;5009511;28;20021;-89
2023/04/21 02:06:56;;;;;;;61.30;26.08;;;9.30;99.90;;;;;;5024308;28;20040;-89
2023/04/21 02:09:24;;;;;;;56.15;25.45;;;9.30;99.90;;;;;;5008828;28;21202;-89
2023/04/21 02:11:50;;;;;;;52.25;25.92;;;9.20;99.90;;;;;;5007235;28;20065;-90
2023/04/21 02:14:15;;;;;;;55.83;27.65;;;9.30;99.90;;;;;;5005978;28;20502;-89
2023/04/21 02:16:41;;;;;;;54.33;27.70;;;9.30;99.90;;;;;;5004200;28;20368;-90
2023/04/21 02:19:07;;;;;;;56.40;28.13;;;9.40;99.90;;;;;;5006767;28;20017;-89
2023/04/21 02:21:33;;;;;;;56.20;27.63;;;9.40;99.90;;;;;;5021425;28;20048;-89
2023/04/21 02:23:59;;;;;;;55.65;26.70;;;9.40;99.90;;;;;;5028098;28;20089;-89
2023/04/21 02:26:24;;;;;;;57.72;28.92;;;9.40;99.90;;;;;;5030778;28;20060;-89
2023/04/21 02:28:50;;;;;;;56.28;27.33;;;9.40;99.90;;;;;;5040570;28;20037;-89
2023/04/21 02:31:17;;;;;;;55.33;28.83;;;9.40;99.90;;;;;;5027367;28;20018;-88
2023/04/21 02:33:43;;;;;;;61.35;30.40;;;9.40;99.90;;;;;;5028435;28;20398;-89
2023/04/21 02:36:09;;;;;;;61.35;29.30;;;9.40;99.90;;;;;;5003449;28;20033;-89
2023/04/21 02:38:42;;;;;;;56.22;28.95;;;9.40;99.90;;;;;;5003461;28;20040;-89
2023/04/21 02:41:08;;;;;;;;;;;9.50;99.90;;;;;;5003827;28;20029;-90
2023/04/21 02:43:33;;;;;;;56.40;27.65;;;9.40;99.90;;;;;;5006427;28;19909;-90
2023/04/21 02:46:04;;;;;;;58.95;28.85;;;9.50;99.90;;;;;;5012648;28;20025;-89
2023/04/21 02:48:29;;;;;;;60.97;29.77;;;9.50;99.90;;;;;;4987572;28;20033;-89
2023/04/21 02:50:55;;;;;;;59.70;29.05;;;9.40;99.90;;;;;;5008338;28;20014;-89
2023/04/21 02:53:21;;;;;;;58.97;29.80;;;9.50;99.90;;;;;;5003536;28;20025;-90
2023/04/21 02:55:46;;;;;;;56.63;28.70;;;9.50;99.90;;;;;;4999287;28;20022;-89
2023/04/21 02:58:12;;;;;;;58.78;30.75;;;9.50;99.90;;;;;;5003369;28;20021;-89
2023/04/21 03:00:38;;;;;;;63.45;30.17;;;9.50;99.90;;;;;;4999710;28;20056;-89
2023/04/21 03:03:04;;;;;;;57.35;29.00;;;9.50;99.90;;;;;;5005483;28;20038;-88
2023/04/21 03:05:29;;;;;;;59.30;29.15;;;9.50;99.90;;;;;;5005905;28;20038;-88
2023/04/21 03:07:55;;;;;;;53.85;28.17;;;9.50;99.90;;;;;;5006119;28;20065;-88
2023/04/21 03:10:21;;;;;;;58.95;30.00;;;9.50;99.90;;;;;;5006241;28;20048;-89
2023/04/21 03:12:46;;;;;;;54.10;27.08;;;9.50;99.90;;;;;;5019033;28;20205;-89
2023/04/21 03:15:15;;;;;;;56.83;29.98;;;9.50;99.90;;;;;;5007692;28;20026;-89
2023/04/21 03:17:41;;;;;;;55.65;28.60;;;9.60;99.90;;;;;;5005395;28;20494;-88
2023/04/21 03:20:08;;;;;;;56.90;29.10;;;9.60;99.90;;;;;;5006697;28;20025;-89
2023/04/21 03:22:40;;;;;;;55.60;29.42;;;9.70;99.90;;;;;;4999891;28;20030;-89
2023/04/21 03:25:06;;;;;;;53.33;28.50;;;9.70;99.90;;;;;;5007739;28;20018;-88
2023/04/21 03:27:36;;;;;;;55.95;29.50;;;9.70;99.90;;;;;;5001747;28;20056;-88
2023/04/21 03:30:02;;;;;;;57.45;29.58;;;9.70;99.90;;;;;;5001095;28;20033;-89
2023/04/21 03:32:27;;;;;;;52.83;27.88;;;9.70;99.90;;;;;;5010971;28;20029;-88
2023/04/21 03:34:53;;;;;;;59.47;28.40;;;9.70;99.90;;;;;;5001372;28;20026;-88
2023/04/21 03:37:19;;;;;;;55.65;26.95;;;9.70;99.90;;;;;;5007051;28;20301;-88
2023/04/21 03:39:44;;;;;;;57.33;28.42;;;9.70;99.90;;;;;;5009357;28;20482;-87
2023/04/21 03:42:10;;;;;;;56.45;28.92;;;9.70;99.90;;;;;;5018174;28;20033;-88
2023/04/21 03:44:43;;;;;;;56.03;29.13;;;9.70;99.90;;;;;;5015814;28;20041;-89
2023/04/21 03:47:08;;;;;;;58.13;28.42;;;9.70;99.90;;;;;;5017510;28;20033;-88
2023/04/21 03:49:37;;;;;;;56.90;28.23;;;9.70;99.90;;;;;;5009529;28;20037;-87
2023/04/21 03:52:02;;;;;;;57.38;29.10;;;9.70;99.90;;;;;;5012382;28;20032;-88
2023/04/21 03:54:28;;;;;;;56.78;29.15;;;9.70;99.90;;;;;;5010477;28;20022;-88
2023/04/21 03:56:54;;;;;;;55.85;28.55;;;9.70;99.90;;;;;;5010726;28;20053;-87
2023/04/21 03:59:19;;;;;;;55.47;30.17;;;9.70;99.90;;;;;;5002756;28;20052;-88
2023/04/21 04:01:45;;;;;;;55.90;28.38;;;9.70;99.90;;;;;;4999813;28;20033;-88
2023/04/21 04:04:11;;;;;;;55.63;29.30;;;9.70;99.90;;;;;;5002090;28;20029;-87
2023/04/21 04:06:36;;;;;;;53.65;29.42;;;9.70;99.90;;;;;;5007079;28;20026;-88
2023/04/21 04:09:03;;;;;;;56.47;28.27;;;9.70;99.90;;;;;;5002006;28;20040;-87
2023/04/21 04:11:30;;;;;;;57.25;29.10;;;9.80;99.90;;;;;;5005312;28;20069;-88
2023/04/21 04:13:55;;;;;;;53.67;28.15;;;9.70;99.90;;;;;;5020202;28;20041;-87
2023/04/21 04:16:21;;;;;;;55.90;28.60;;;9.80;99.90;;;;;;5015725;28;20405;-87
2023/04/21 04:18:48;;;;;;;59.65;28.83;;;9.80;99.90;;;;;;5004771;28;20099;-87
2023/04/21 04:21:14;;;;;;;57.83;29.55;;;9.80;99.90;;;;;;5009473;28;20033;-87
2023/04/21 04:23:39;;;;;;;56.10;28.30;;;9.80;99.90;;;;;;5008201;28;20022;-87
2023/04/21 04:26:05;;;;;;;53.95;28.63;;;9.80;99.90;;;;;;5010064;28;20028;-87
2023/04/21 04:28:31;;;;;;;54.60;28.23;;;9.80;99.90;;;;;;5022932;28;20021;-87
2023/04/21 04:30:56;;;;;;;56.38;28.55;;;9.80;99.90;;;;;;5009227;28;20025;-88
2023/04/21 04:33:22;;;;;;;56.35;28.55;;;9.80;99.90;;;;;;5006793;28;20207;-87
2023/04/21 04:35:48;;;;;;;60.92;29.15;;;9.70;99.90;;;;;;5010727;28;20025;-87
2023/04/21 04:38:14;;;;;;;54.67;27.75;;;9.70;99.90;;;;;;5009202;28;20041;-88
2023/04/21 04:40:41;;;;;;;61.17;29.75;;;9.80;99.90;;;;;;5003585;28;20466;-87
2023/04/21 04:43:07;;;;;;;57.55;29.25;;;9.70;99.90;;;;;;5003394;28;20025;-88
2023/04/21 04:45:33;;;;;;;56.60;28.75;;;9.70;99.90;;;;;;5011610;28;20029;-89
2023/04/21 04:47:59;;;;;;;56.70;29.75;;;9.70;99.90;;;;;;5006966;28;20067;-87
2023/04/21 04:50:24;;;;;;;63.53;30.75;;;9.70;99.90;;;;;;5009499;28;20022;-87
2023/04/21 04:52:50;;;;;;;56.75;30.42;;;9.70;99.90;;;;;;5010740;28;20330;-89
2023/04/21 04:55:16;;;;;;;52.78;29.20;;;9.70;99.90;;;;;;5003890;28;20056;-87
2023/04/21 04:57:41;;;;;;;55.47;29.42;;;9.70;99.90;;;;;;5002089;28;20026;-87
2023/04/21 05:00:13;;;;;;;55.83;29.80;;;9.80;99.90;;;;;;5007130;28;20030;-87
2023/04/21 05:02:39;;;;;;;60.92;30.00;;;9.80;99.90;;;;;;5002808;28;20481;-87
2023/04/21 05:05:06;;;;;;;56.40;30.17;;;9.80;99.90;;;;;;5004138;28;20486;-87
2023/04/21 05:07:35;;;;;;;59.38;30.15;;;9.80;99.90;;;;;;5004387;28;20021;-87
2023/04/21 05:10:03;;;;;;;57.05;30.05;;;9.90;99.90;;;;;;5005050;28;20381;-87
2023/04/21 05:12:31;;;;;;;57.92;31.10;;;9.90;99.90;;;;;;5019816;28;20495;-90
2023/04/21 05:14:57;;;;;;;54.88;29.77;;;9.90;99.90;;;;;;5009876;28;20032;-90
2023/04/21 05:17:22;;;;;;;57.92;30.42;;;10.00;99.90;;;;;;5009482;28;20025;-88
2023/04/21 05:19:48;;;;;;;56.30;29.33;;;10.10;99.90;;;;;;5007443;28;20017;-87
2023/04/21 05:22:14;;;;;;;58.15;30.05;;;10.10;99.90;;;;;;5009315;28;20041;-88
2023/04/21 05:24:41;;;;;;;58.65;29.50;;;10.20;99.90;;;;;;5001382;28;20036;-87
2023/04/21 05:27:07;;;;;;;57.03;29.48;;;10.20;99.90;;;;;;4987077;28;20030;-88
2023/04/21 05:29:33;;;;;;;60.00;31.25;;;10.20;99.90;;;;;;5009543;28;20491;-89
2023/04/21 05:31:59;;;;;;;59.90;30.05;;;10.30;99.90;;;;;;4996424;28;20040;-87
2023/04/21 05:34:25;;;;;;;57.83;30.98;;;10.30;99.90;;;;;;5000675;28;20021;-79
2023/04/21 05:36:51;;;;;;;54.30;30.13;;;10.30;99.90;;;;;;5007182;28;20022;-87
2023/04/21 05:39:17;;;;;;;54.15;29.45;;;10.40;99.90;;;;;;5013835;28;20042;-85
2023/04/21 05:41:43;;;;;;;57.00;31.50;;;10.40;99.90;;;;;;5017255;28;20036;-84
2023/04/21 05:44:11;;;;;;;56.05;30.60;;;10.50;99.90;;;;;;5015097;28;20029;-84
2023/04/21 05:46:36;;;;;;;55.50;30.52;;;10.50;99.90;;;;;;5005364;28;20520;-85
2023/04/21 05:49:02;;;;;;;56.22;31.05;;;10.60;99.90;;;;;;5013454;28;20022;-83
2023/04/21 05:51:28;;;;;;;56.33;30.10;;;10.60;99.90;;;;;;5003318;28;20030;-85
2023/04/21 05:53:53;;;;;;;57.88;29.88;;;10.60;99.90;;;;;;5001045;28;20057;-84
2023/04/21 05:56:19;;;;;;;54.85;30.13;;;10.70;99.90;;;;;;5004952;28;20025;-81
2023/04/21 05:58:52;;;;;;;51.60;28.45;;;10.70;99.90;;;;;;5020057;28;20144;-89
2023/04/21 06:01:18;;;;;;;53.05;30.13;;;10.70;99.90;;;;;;5016353;28;20036;-82
2023/04/21 06:03:44;;;;;;;56.97;28.45;;;10.70;99.90;;;;;;4999932;28;20030;-83
2023/04/21 06:06:13;;;;;;;56.13;29.92;;;10.70;99.90;;;;;;5000217;28;20037;-85
2023/04/21 06:08:48;;;;;;;57.65;29.95;;;10.70;99.90;;;;;;5006232;28;20118;-81
2023/04/21 06:11:14;;;;;;;50.60;28.98;;;10.80;99.90;;;;;;5019361;28;20507;-82
2023/04/21 06:13:57;;;;;;;54.15;29.65;;;10.80;99.90;;;;;;5004312;28;20021;-84
2023/04/21 06:16:25;;;;;;;51.92;28.90;;;10.80;99.90;;;;;;5004557;28;20036;-81
2023/04/21 06:19:12;;;;;;;53.63;28.75;;;10.80;99.90;;;;;;5017604;28;20021;-82
2023/04/21 06:21:45;;;;;;;56.33;29.80;;;10.80;99.90;;;;;;4999800;28;20029;-82
2023/04/21 06:24:14;;;;;;;53.33;28.83;;;10.80;99.90;;;;;;5002507;28;20038;-82
2023/04/21 06:26:53;;;;;;;48.85;28.05;;;10.90;99.90;;;;;;5003860;28;20030;-83
2023/04/21 06:29:42;;;;;;;53.90;29.25;;;10.90;99.90;;;;;;5004341;28;20022;-84
2023/04/21 06:32:17;;;;;;;58.78;30.48;;;11.00;99.90;;;;;;5008249;28;20054;-88
2023/04/21 06:35:11;;;;;;;49.83;29.10;;;11.10;99.90;;;;;;5004219;28;20482;-82
2023/04/21 06:37:37;;;;;;;51.80;29.52;;;11.10;99.90;;;;;;5005076;28;20089;-85
2023/04/21 06:40:06;;;;;;;50.13;28.02;;;11.20;99.90;;;;;;5007937;28;20118;-91
2023/04/21 06:42:37;;;;;;;72.30;35.72;;;11.20;99.90;;;;;;5003138;28;20025;-89
2023/04/21 06:45:03;;;;;;;55.75;29.70;;;11.20;99.90;;;;;;5010607;28;20025;-86
2023/04/21 06:47:32;;;;;;;49.88;29.23;;;11.30;99.90;;;;;;4999982;28;20085;-85
2023/04/21 06:50:18;;;;;;;54.63;29.25;;;11.40;99.90;;;;;;5004413;28;20030;-85
2023/04/21 06:52:49;;;;;;;56.38;27.75;;;11.40;99.90;;;;;;5011950;28;20026;-85
2023/04/21 06:55:25;;;;;;;52.22;29.90;;;11.60;99.90;;;;;;5002459;28;20053;-90
2023/04/21 06:58:00;;;;;;;;;;;;;;;;;;;;;
2023/04/21 07:00:38;;;;;;;52.90;29.80;;;11.80;99.90;;;;;;5019815;28;20026;-90
2023/04/21 07:03:08;;;;;;;54.45;29.00;;;11.90;99.90;;;;;;5002312;28;20064;-87
2023/04/21 07:05:37;;;;;;;51.97;29.45;;;12.00;99.90;;;;;;5004880;28;20045;-86
2023/04/21 07:08:03;;;;;;;55.00;29.42;;;12.10;99.90;;;;;;5005546;28;20029;-87
2023/04/21 07:10:41;;;;;;;51.78;29.20;;;12.10;99.90;;;;;;5005485;28;20026;-87
2023/04/21 07:13:06;;;;;;;47.92;27.63;;;12.20;99.90;;;;;;5009057;28;20025;-83
2023/04/21 07:15:32;;;;;;;52.85;29.50;;;12.30;99.90;;;;;;4998420;28;20033;-82
2023/04/21 07:17:57;;;;;;;49.10;27.58;;;12.30;99.90;;;;;;5001594;28;20026;-82
2023/04/21 07:20:23;;;;;;;50.70;29.20;;;12.30;99.90;;;;;;5000885;28;20034;-81
2023/04/21 07:22:49;;;;;;;452.95;186.25;;;12.40;99.90;;;;;;5001320;28;20511;-83
2023/04/21 07:25:15;;;;;;;136.38;58.25;;;12.40;99.90;;;;;;4999704;28;20032;-82
2023/04/21 07:27:40;;;;;;;48.83;28.30;;;12.40;99.90;;;;;;5002294;28;20097;-86
2023/04/21 07:30:14;;;;;;;51.80;27.92;;;12.40;99.90;;;;;;5004627;28;20159;-90
2023/04/21 07:32:40;;;;;;;50.20;28.27;;;12.50;99.90;;;;;;5001103;28;20340;-88
2023/04/21 07:35:08;;;;;;;52.17;28.13;;;12.70;99.90;;;;;;5009394;28;20013;-91
2023/04/21 07:37:34;;;;;;;47.47;27.63;;;12.80;99.90;;;;;;5006192;28;20026;-87
2023/04/21 07:40:03;;;;;;;49.88;27.85;;;12.90;99.90;;;;;;5010771;28;20041;-85
2023/04/21 07:42:34;;;;;;;48.03;27.27;;;13.00;99.90;;;;;;5006453;28;20059;-85
2023/04/21 07:45:14;;;;;;;;;;;;;;;;;;;;;
2023/04/21 07:47:40;;;;;;;54.47;32.58;;;13.10;99.90;;;;;;5021819;28;20511;-92
2023/04/21 07:50:18;;;;;;;47.13;27.77;;;13.20;99.90;;;;;;5020118;28;20108;-84
2023/04/21 07:52:47;;;;;;;46.22;26.40;;;13.30;99.90;;;;;;5010115;28;20037;-92
2023/04/21 07:55:22;;;;;;;44.97;26.05;;;13.40;99.90;;;;;;5002099;28;20032;-83
2023/04/21 07:57:49;;;;;;;44.67;25.85;;;13.50;99.90;;;;;;5020444;28;20033;-82
2023/04/21 08:00:17;;;;;;;47.30;25.08;;;13.70;99.90;;;;;;5004139;28;20033;-87
2023/04/21 08:02:56;;;;;;;;;;;;;;;;;;;;;
2023/04/21 08:05:27;;;;;;;47.13;25.42;;;13.80;99.90;;;;;;5025260;28;20026;-96
2023/04/21 08:07:53;;;;;;;45.33;25.75;;;13.90;99.90;;;;;;5029433;28;20302;-81
2023/04/21 08:10:22;;;;;;;52.72;28.42;;;13.80;99.90;;;;;;5008101;28;20033;-84
2023/04/21 08:12:48;;;;;;;44.58;25.48;;;13.80;99.90;;;;;;5010507;28;20905;-86
2023/04/21 08:15:24;;;;;;;46.28;24.52;;;13.80;99.90;;;;;;5000472;28;20057;-85
2023/04/21 08:17:50;;;;;;;43.15;24.42;;;13.90;99.90;;;;;;5005540;28;20152;-85
2023/04/21 08:20:16;;;;;;;38.45;23.30;;;13.90;99.90;;;;;;5003274;28;20637;-86
2023/04/21 08:22:49;;;;;;;42.95;23.52;;;14.00;99.90;;;;;;5005653;28;20029;-90
2023/04/21 08:25:18;;;;;;;41.58;23.85;;;14.10;99.90;;;;;;5010927;28;20053;-81
2023/04/21 08:27:56;;;;;;;46.05;26.23;;;14.10;99.90;;;;;;5007662;28;20193;-87
2023/04/21 08:30:32;;;;;;;46.28;22.92;;;14.10;99.90;;;;;;5006267;28;20049;-87
2023/04/21 08:33:21;;;;;;;41.72;23.55;;;14.20;99.90;;;;;;4995854;28;20267;-91
2023/04/21 08:36:10;;;;;;;43.05;24.45;;;14.20;99.90;;;;;;5011785;28;20041;-88
2023/04/21 08:39:02;;;;;;;42.72;24.10;;;14.30;99.90;;;;;;5020772;28;20022;-82
2023/04/21 08:41:39;;;;;;;47.97;23.42;;;14.50;99.90;;;;;;5000342;28;20025;-82
2023/04/21 08:44:18;;;;;;;44.20;22.58;;;14.50;99.90;;;;;;5002850;28;20109;-82
2023/04/21 08:46:47;;;;;;;46.58;24.20;;;14.30;99.90;;;;;;5008715;28;20414;-83
2023/04/21 08:49:17;;;;;;;43.80;25.05;;;14.20;99.90;;;;;;5001323;28;20120;-79
2023/04/21 08:51:43;;;;;;;38.70;22.77;;;14.20;99.90;;;;;;5001107;28;20366;-80
2023/04/21 08:54:21;;;;;;;86.00;38.58;;;14.20;99.90;;;;;;5004996;28;20018;-82
2023/04/21 08:56:48;;;;;;;46.78;23.65;;;14.30;99.90;;;;;;4998744;28;20400;-79
2023/04/21 08:59:22;;;;;;;46.50;24.45;;;14.50;99.90;;;;;;5003682;28;20041;-82
2023/04/21 09:02:08;;;;;;;39.28;22.88;;;14.50;99.90;;;;;;4995165;28;20051;-81
2023/04/21 09:04:38;;;;;;;46.05;24.20;;;14.60;99.90;;;;;;4997312;28;20056;-82
2023/04/21 09:07:31;;;;;;;38.92;22.75;;;14.70;99.90;;;;;;4996534;28;20038;-83
2023/04/21 09:10:07;;;;;;;44.97;23.45;;;14.70;99.90;;;;;;5020811;28;20037;-83
2023/04/21 09:12:55;;;;;;;41.28;23.25;;;14.80;99.90;;;;;;5019371;28;20026;-83
2023/04/21 09:15:24;;;;;;;42.92;23.85;;;14.70;99.90;;;;;;5008889;28;20379;-82
2023/04/21 09:18:04;;;;;;;41.78;23.67;;;14.80;99.90;;;;;;5019912;28;20468;-83
2023/04/21 09:20:30;;;;;;;40.65;24.50;;;14.80;99.90;;;;;;5005364;28;20041;-82
2023/04/21 09:23:04;;;;;;;40.90;24.52;;;14.90;99.90;;;;;;5006555;28;20025;-81
2023/04/21 09:25:36;;;;;;;42.08;24.30;;;15.10;99.90;;;;;;5008733;28;20033;-82
2023/04/21 09:28:11;;;;;;;41.73;23.93;;;15.20;99.90;;;;;;5008667;28;20608;-83
2023/04/21 09:30:47;;;;;;;48.72;25.85;;;15.40;99.90;;;;;;4994233;28;20465;-81
2023/04/21 09:33:19;;;;;;;44.72;24.40;;;15.50;99.90;;;;;;5006140;28;20030;-82
2023/04/21 09:35:47;;;;;;;37.38;24.33;;;15.60;99.90;;;;;;5009555;28;20157;-81
2023/04/21 09:38:13;;;;;;;40.97;23.77;;;15.60;99.90;;;;;;5004583;28;20498;-80
2023/04/21 09:40:52;;;;;;;;;;;;;;;;;;;;;
2023/04/21 09:43:18;;;;;;;45.70;24.27;;;15.80;99.90;;;;;;5017579;28;20049;-85
2023/04/21 09:45:48;;;;;;;34.08;22.75;;;15.90;99.90;;;;;;5005335;28;20113;-83
2023/04/21 09:48:30;;;;;;;;;;;;;;;;;;;;;
2023/04/21 09:51:00;;;;;;;49.03;27.77;;;15.90;99.90;;;;;;5020701;28;20675;-81
2023/04/21 09:53:47;;;;;;;42.38;24.95;;;15.90;99.90;;;;;;5004559;28;20053;-83
2023/04/21 09:56:24;;;;;;;;;;;;;;;;;;;;;
2023/04/21 09:59:00;;;;;;;41.80;24.30;;;16.50;99.90;;;;;;5021809;28;20028;-83
2023/04/21 10:01:39;;;;;;;42.08;23.10;;;17.10;99.90;;;;;;5003228;28;20109;-79
2023/04/21 10:04:07;;;;;;;40.97;23.48;;;17.10;99.90;;;;;;5009449;28;20025;-81
2023/04/21 10:06:55;;;;;;;;;;;;;;;;;;;;;
2023/04/21 10:09:24;;;;;;;40.88;23.10;;;16.90;99.90;;;;;;5021559;28;20063;-81
2023/04/21 10:11:52;;;;;;;39.72;23.10;;;16.80;99.90;;;;;;5000189;28;20501;-81
2023/04/21 10:14:20;;;;;;;37.60;23.48;;;16.70;99.90;;;;;;5014757;28;20524;-82
2023/04/21 10:17:05;;;;;;;46.75;26.95;;;16.70;99.90;;;;;;5004253;28;20025;-83
2023/04/21 10:19:37;;;;;;;42.28;23.98;;;16.60;99.90;;;;;;4984885;28;20077;-81
2023/04/21 10:22:06;;;;;;;37.97;22.90;;;16.90;99.90;;;;;;5000343;28;20041;-80
2023/04/21 10:24:37;;;;;;;40.90;23.48;;;17.00;99.90;;;;;;4984928;28;20030;-83
2023/04/21 10:27:03;;;;;;;43.65;22.92;;;16.90;99.90;;;;;;5001607;28;20409;-81
2023/04/21 10:29:33;;;;;;;37.53;23.23;;;16.70;99.90;;;;;;5000648;28;20034;-79
2023/04/21 10:32:03;;;;;;;36.40;22.85;;;16.50;99.90;;;;;;4996878;28;20324;-81
2023/04/21 10:34:33;;;;;;;37.78;22.63;;;16.50;99.90;;;;;;4999834;28;20533;-82
2023/04/21 10:36:59;;;;;;;37.67;23.00;;;16.40;99.90;;;;;;4998611;28;20656;-82
2023/04/21 10:39:26;;;;;;;39.25;22.15;;;16.40;99.90;;;;;;5003514;28;20021;-83
2023/04/21 10:41:57;;;;;;;35.42;22.23;;;16.40;99.90;;;;;;5001896;28;20493;-79
2023/04/21 10:44:23;;;;;;;39.85;22.30;;;16.30;99.90;;;;;;5002411;28;20222;-79
2023/04/21 10:46:53;;;;;;;281.83;121.32;;;16.20;99.90;;;;;;5001398;28;20037;-79
2023/04/21 10:49:27;;;;;;;39.58;23.00;;;16.20;99.90;;;;;;5000450;28;20072;-78
2023/04/21 10:52:01;;;;;;;32.67;20.80;;;16.40;99.90;;;;;;4999408;28;20528;-82
2023/04/21 10:54:41;;;;;;;36.53;22.25;;;16.90;99.90;;;;;;5003540;28;20030;-82
2023/04/21 10:57:10;;;;;;;39.88;22.60;;;17.40;99.90;;;;;;5014596;28;20094;-81
2023/04/21 10:59:36;;;;;;;36.72;22.02;;;17.70;99.90;;;;;;4998136;28;20076;-81
2023/04/21 11:02:13;;;;;;;41.58;21.75;;;17.70;99.90;;;;;;4998214;28;20026;-82
2023/04/21 11:04:49;;;;;;;38.55;21.35;;;17.60;99.90;;;;;;5012063;28;20659;-83
2023/04/21 11:07:15;;;;;;;38.15;21.90;;;17.90;99.90;;;;;;4998874;28;20034;-81
2023/04/21 11:09:41;;;;;;;36.50;21.60;;;18.20;99.90;;;;;;4997764;28;20343;-79
2023/04/21 11:12:16;;;;;;;38.00;21.83;;;18.10;99.90;;;;;;5003295;28;20091;-80
2023/04/21 11:14:48;;;;;;;53.75;30.67;;;17.90;99.90;;;;;;5003737;28;20018;-79
2023/04/21 11:17:16;;;;;;;39.42;21.42;;;17.70;99.90;;;;;;5016028;28;20580;-80
2023/04/21 11:19:53;;;;;;;42.55;23.05;;;17.50;99.90;;;;;;5002948;28;20029;-80
2023/04/21 11:22:22;;;;;;;40.88;22.40;;;17.60;99.90;;;;;;4989985;28;20120;-79
2023/04/21 11:24:53;;;;;;;35.28;21.83;;;17.50;99.90;;;;;;5011496;28;20018;-79
2023/04/21 11:27:18;;;;;;;39.67;21.88;;;17.40;99.90;;;;;;5001575;28;20044;-80
2023/04/21 11:29:48;;;;;;;35.80;22.15;;;17.40;99.90;;;;;;4994700;28;20497;-80
2023/04/21 11:32:14;;;;;;;35.92;21.65;;;17.50;99.90;;;;;;4995640;28;20033;-83
2023/04/21 11:34:40;;;;;;;40.65;22.30;;;17.70;99.90;;;;;;4998330;28;20109;-81
2023/04/21 11:37:07;;;;;;;35.53;22.25;;;18.00;99.90;;;;;;4992921;28;20023;-80
2023/04/21 11:39:33;;;;;;;37.15;21.50;;;18.00;99.90;;;;;;5001944;28;20508;-80
2023/04/21 11:41:59;;;;;;;39.15;22.10;;;17.90;99.90;;;;;;4999605;28;20025;-80
2023/04/21 11:44:41;;;;;;;36.85;22.23;;;17.90;99.90;;;;;;4993551;28;20108;-81
2023/04/21 11:47:18;;;;;;;37.78;21.38;;;17.90;99.90;;;;;;4998240;28;20477;-80
2023/04/21 11:49:58;;;;;;;44.17;22.58;;;17.80;99.90;;;;;;4999673;28;20470;-79
2023/04/21 11:52:23;;;;;;;39.25;22.55;;;17.70;99.90;;;;;;5000324;28;20036;-80
2023/04/21 11:55:03;;;;;;;37.42;21.98;;;17.70;99.90;;;;;;5014938;28;20037;-80
2023/04/21 11:57:31;;;;;;;36.75;21.33;;;17.80;99.90;;;;;;5003947;28;20029;-80
2023/04/21 12:00:10;;;;;;;39.88;22.85;;;17.80;99.90;;;;;;5005944;28;20048;-80
2023/04/21 12:02:36;;;;;;;35.83;20.90;;;17.70;99.90;;;;;;5012654;28;20040;-80
2023/04/21 12:05:12;;;;;;;41.92;21.27;;;17.70;99.90;;;;;;5003213;28;20025;-81
2023/04/21 12:07:42;;;;;;;39.15;22.30;;;17.90;99.90;;;;;;4999212;28;20370;-82
2023/04/21 12:10:12;;;;;;;34.60;20.83;;;18.00;99.90;;;;;;5002686;28;20491;-82
2023/04/21 12:12:39;;;;;;;37.28;21.92;;;18.30;99.90;;;;;;4995384;28;20482;-82
2023/04/21 12:15:09;;;;;;;34.47;20.88;;;18.70;99.90;;;;;;5000575;28;20888;-81
2023/04/21 12:17:42;;;;;;;34.92;20.30;;;19.40;99.90;;;;;;5017507;28;20112;-81
2023/04/21 12:20:08;;;;;;;36.42;20.52;;;20.00;99.90;;;;;;5003986;28;20068;-82
2023/04/21 12:22:37;;;;;;;33.78;20.35;;;20.20;99.90;;;;;;4997477;28;20379;-81
2023/04/21 12:25:06;;;;;;;32.95;19.75;;;20.40;99.90;;;;;;5003380;28;20025;-81
2023/04/21 12:27:32;;;;;;;34.67;20.25;;;20.60;99.90;;;;;;5002511;28;20587;-82
2023/04/21 12:29:57;;;;;;;30.25;20.00;;;20.80;99.90;;;;;;4998541;28;20033;-81
2023/04/21 12:32:23;;;;;;;33.13;19.77;;;20.70;99.90;;;;;;4998399;28;20543;-82
2023/04/21 12:34:49;;;;;;;28.38;19.10;;;20.70;99.90;;;;;;4998236;28;20335;-81
2023/04/21 12:37:15;;;;;;;34.75;19.85;;;20.90;99.90;;;;;;4999481;28;20022;-81
2023/04/21 12:39:43;;;;;;;30.92;19.38;;;20.90;99.60;;;;;;5004300;28;20505;-81
2023/04/21 12:42:08;;;;;;;31.13;18.70;;;20.80;99.40;;;;;;5014928;28;20114;-81
2023/04/21 12:44:36;;;;;;;26.48;17.60;;;21.00;99.30;;;;;;5002091;28;20033;-81
2023/04/21 12:47:02;;;;;;;28.40;17.98;;;21.10;99.30;;;;;;5004953;28;20033;-81
2023/04/21 12:49:28;;;;;;;26.73;17.98;;;21.10;97.90;;;;;;4997191;28;20031;-81
2023/04/21 12:51:53;;;;;;;31.85;19.50;;;20.80;98.30;;;;;;5014467;28;20543;-81